Time;durP1;ratioP1;P1;durP2;ratioP2;P2;SDS_P1;SDS_P2;PMS_P1;PMS_P2;Temp;Humidity;BMP_temperature;BMP_pressure;BME280_temperature;BME280_humidity;BME280_pressure;Samples;Min_cycle;Max_cycle;Signal;HPM_P1;HPM_P2
2022/04/03 00:00:50;;;;;;;15.93;8.13;;;;;;;;;;5088653;28;20467;-68
2022/04/03 00:03:16;;;;;;;17.33;7.80;;;;;;;;;;5086508;28;20040;-68
2022/04/03 00:05:43;;;;;;;18.50;8.75;;;;;;;;;;5086742;28;20056;-68
2022/04/03 00:08:12;;;;;;;17.42;7.65;;;;;;;;;;5086332;28;20056;-68
2022/04/03 00:10:42;;;;;;;16.60;7.80;;;;;;;;;;5097198;28;20149;-68
2022/04/03 00:13:08;;;;;;;;;;;;;;;;;;5091724;28;20449;-71
2022/04/03 00:15:38;;;;;;;16.20;7.85;;;;;;;;;;5083815;28;19924;-69
2022/04/03 00:18:04;;;;;;;16.60;7.85;;;;;;;;;;5088301;28;20075;-68
2022/04/03 00:20:31;;;;;;;19.80;7.60;;;;;;;;;;5083168;28;20064;-68
2022/04/03 00:22:57;;;;;;;;;;;;;;;;;;5088905;28;20059;-68
2022/04/03 00:25:23;;;;;;;15.85;7.13;;;;;;;;;;5087618;28;19920;-68
2022/04/03 00:27:52;;;;;;;15.98;7.65;;;;;;;;;;5088160;28;20476;-67
2022/04/03 00:30:18;;;;;;;18.02;7.68;;;;;;;;;;5084301;28;20074;-68
2022/04/03 00:32:44;;;;;;;14.35;6.60;;;;;;;;;;5086680;28;20055;-68
2022/04/03 00:35:10;;;;;;;14.05;6.35;;;;;;;;;;5086952;28;20043;-70
2022/04/03 00:37:36;;;;;;;13.85;7.03;;;;;;;;;;5088358;28;20048;-68
2022/04/03 00:40:02;;;;;;;14.95;6.70;;;;;;;;;;5086052;28;20452;-68
2022/04/03 00:42:28;;;;;;;;;;;;;;;;;;5077309;28;20296;-68
2022/04/03 00:44:55;;;;;;;13.20;6.72;;;;;;;;;;5106830;28;20382;-68
2022/04/03 00:47:21;;;;;;;14.30;6.78;;;;;;;;;;5106281;28;20073;-68
2022/04/03 00:49:49;;;;;;;14.52;6.57;;;;;;;;;;5097219;28;20192;-68
2022/04/03 00:52:15;;;;;;;12.77;6.90;;;;;;;;;;5090665;28;20066;-68
2022/04/03 00:54:44;;;;;;;16.13;7.47;;;;;;;;;;5091095;28;20153;-68
2022/04/03 00:57:11;;;;;;;13.93;7.10;;;;;;;;;;5091227;28;20093;-68
2022/04/03 00:59:37;;;;;;;13.32;6.55;;;;;;;;;;5091659;28;20072;-68
2022/04/03 01:02:03;;;;;;;;;;;;;;;;;;5091240;28;20058;-68
2022/04/03 01:04:32;;;;;;;15.35;6.10;;;;;;;;;;5091594;28;20189;-68
2022/04/03 01:06:59;;;;;;;13.75;6.03;;;;;;;;;;5073257;28;20051;-68
2022/04/03 01:09:25;;;;;;;13.23;5.88;;;;;;;;;;5089859;28;20066;-70
2022/04/03 01:11:52;;;;;;;13.88;5.90;;;;;;;;;;5091147;27;20048;-68
2022/04/03 01:14:34;;;;;;;14.18;5.93;;;;;;;;;;5089621;28;20044;-68
2022/04/03 01:17:01;;;;;;;13.52;6.07;;;;;;;;;;5090423;28;20044;-68
2022/04/03 01:19:27;;;;;;;12.65;5.70;;;;;;;;;;5089886;28;20467;-68
2022/04/03 01:21:53;;;;;;;12.07;5.30;;;;;;;;;;5091205;28;20472;-68
2022/04/03 01:24:21;;;;;;;14.93;5.60;;;;;;;;;;5091029;28;20048;-68
2022/04/03 01:26:47;;;;;;;15.77;5.50;;;;;;;;;;5090622;28;20048;-68
2022/04/03 01:29:13;;;;;;;15.13;5.80;;;;;;;;;;5090382;28;20151;-68
2022/04/03 01:31:39;;;;;;;13.75;5.88;;;;;;;;;;5095082;28;20444;-68
2022/04/03 01:34:05;;;;;;;12.77;5.53;;;;;;;;;;5089466;28;20063;-69
2022/04/03 01:36:31;;;;;;;16.60;5.97;;;;;;;;;;5067205;28;20119;-68
2022/04/03 01:38:57;;;;;;;12.38;6.05;;;;;;;;;;5069346;28;20349;-67
2022/04/03 01:41:23;;;;;;;13.45;5.45;;;;;;;;;;5087792;28;20036;-68
2022/04/03 01:43:49;;;;;;;13.57;6.35;;;;;;;;;;5071849;28;20533;-68
2022/04/03 01:46:15;;;;;;;13.27;5.88;;;;;;;;;;5070341;28;20057;-68
2022/04/03 01:48:41;;;;;;;15.60;6.28;;;;;;;;;;5073076;28;20047;-68
2022/04/03 01:51:07;;;;;;;11.35;5.90;;;;;;;;;;5082084;28;20044;-68
2022/04/03 01:53:34;;;;;;;15.15;6.60;;;;;;;;;;5081124;28;20146;-68
2022/04/03 01:56:04;;;;;;;14.63;6.00;;;;;;;;;;5072837;28;20427;-68
2022/04/03 01:58:31;;;;;;;12.20;5.53;;;;;;;;;;5089973;28;20119;-68
2022/04/03 02:00:57;;;;;;;;;;;;;;;;;;5090175;28;20184;-68
2022/04/03 02:03:23;;;;;;;13.45;5.97;;;;;;;;;;5089568;28;20375;-68
2022/04/03 02:05:49;;;;;;;;;;;;;;;;;;5091356;28;20048;-68
2022/04/03 02:08:15;;;;;;;13.75;6.25;;;;;;;;;;5092274;28;20071;-68
2022/04/03 02:10:41;;;;;;;11.38;5.50;;;;;;;;;;5104045;28;20044;-68
2022/04/03 02:13:08;;;;;;;12.38;5.57;;;;;;;;;;5088987;28;20044;-69
2022/04/03 02:15:34;;;;;;;;;;;;;;;;;;5083880;28;20050;-68
2022/04/03 02:18:00;;;;;;;12.82;5.38;;;;;;;;;;5072271;28;20023;-68
2022/04/03 02:20:26;;;;;;;15.93;5.50;;;;;;;;;;5069751;28;20067;-68
2022/04/03 02:22:52;;;;;;;14.27;5.68;;;;;;;;;;5087693;28;20047;-68
2022/04/03 02:25:18;;;;;;;12.23;5.55;;;;;;;;;;5080859;28;20401;-68
2022/04/03 02:27:46;;;;;;;15.77;5.43;;;;;;;;;;5070118;28;20048;-67
2022/04/03 02:30:13;;;;;;;27.73;5.85;;;;;;;;;;5081367;28;20055;-68
2022/04/03 02:32:39;;;;;;;12.05;5.07;;;;;;;;;;5088258;28;20206;-68
2022/04/03 02:35:06;;;;;;;13.80;5.70;;;;;;;;;;5087495;28;20108;-68
2022/04/03 02:37:33;;;;;;;11.60;5.35;;;;;;;;;;5089522;28;20067;-68
2022/04/03 02:40:00;;;;;;;13.00;5.75;;;;;;;;;;5090163;28;20048;-68
2022/04/03 02:42:26;;;;;;;12.18;5.70;;;;;;;;;;5088763;28;20337;-69
2022/04/03 02:44:52;;;;;;;11.57;5.55;;;;;;;;;;5090906;28;20071;-68
2022/04/03 02:47:19;;;;;;;13.07;5.65;;;;;;;;;;5109200;28;20055;-68
2022/04/03 02:49:45;;;;;;;12.35;5.68;;;;;;;;;;5109857;28;20044;-68
2022/04/03 02:52:11;;;;;;;14.23;6.03;;;;;;;;;;5110486;28;20103;-68
2022/04/03 02:54:37;;;;;;;12.70;6.45;;;;;;;;;;5100955;28;20044;-64
2022/04/03 02:57:04;;;;;;;10.88;4.57;;;;;;;;;;5084235;28;20090;-67
2022/04/03 02:59:30;;;;;;;8.57;3.60;;;;;;;;;;5069293;28;20052;-68
2022/04/03 03:01:56;;;;;;;9.75;3.38;;;;;;;;;;5087119;28;20040;-68
2022/04/03 03:04:22;;;;;;;9.88;3.50;;;;;;;;;;5089890;28;20048;-67
2022/04/03 03:06:48;;;;;;;8.95;3.05;;;;;;;;;;5093808;28;20158;-68
2022/04/03 03:09:14;;;;;;;11.18;3.13;;;;;;;;;;5109838;28;20055;-68
2022/04/03 03:11:40;;;;;;;8.13;2.78;;;;;;;;;;5106941;28;20100;-68
2022/04/03 03:14:06;;;;;;;8.20;2.95;;;;;;;;;;5089187;28;20059;-68
2022/04/03 03:16:32;;;;;;;7.97;2.80;;;;;;;;;;5082814;28;20044;-68
2022/04/03 03:18:58;;;;;;;8.85;2.88;;;;;;;;;;5089754;28;20179;-69
2022/04/03 03:21:24;;;;;;;7.95;2.80;;;;;;;;;;5089166;28;20036;-68
2022/04/03 03:23:50;;;;;;;7.68;2.92;;;;;;;;;;5088434;28;20048;-69
2022/04/03 03:26:16;;;;;;;8.30;3.00;;;;;;;;;;5081606;28;20044;-68
2022/04/03 03:28:46;;;;;;;8.15;2.95;;;;;;;;;;5108620;28;20062;-69
2022/04/03 03:31:12;;;;;;;8.90;3.22;;;;;;;;;;5109304;27;20483;-67
2022/04/03 03:33:38;;;;;;;8.70;3.30;;;;;;;;;;5094021;28;20143;-67
2022/04/03 03:36:05;;;;;;;8.77;3.15;;;;;;;;;;5077333;28;20045;-66
2022/04/03 03:38:31;;;;;;;8.20;2.90;;;;;;;;;;5089798;28;20124;-67
2022/04/03 03:40:57;;;;;;;12.02;3.33;;;;;;;;;;5087803;28;20464;-67
2022/04/03 03:43:23;;;;;;;12.10;3.05;;;;;;;;;;5073725;28;20070;-67
2022/04/03 03:45:49;;;;;;;8.65;3.22;;;;;;;;;;5082852;28;20226;-67
2022/04/03 03:48:18;;;;;;;10.93;3.65;;;;;;;;;;5088900;28;20069;-68
2022/04/03 03:50:45;;;;;;;8.65;3.28;;;;;;;;;;5097835;28;20087;-68
2022/04/03 03:53:11;;;;;;;8.95;3.25;;;;;;;;;;5089009;28;20051;-68
2022/04/03 03:55:37;;;;;;;;;;;;;;;;;;5088071;28;20083;-68
2022/04/03 03:58:03;;;;;;;9.35;4.00;;;;;;;;;;5088972;28;19994;-67
2022/04/03 04:00:29;;;;;;;11.77;4.35;;;;;;;;;;5101223;28;20477;-68
2022/04/03 04:02:56;;;;;;;11.40;4.40;;;;;;;;;;5087007;28;20109;-68
2022/04/03 04:05:23;;;;;;;10.70;4.60;;;;;;;;;;5088587;28;20067;-68
2022/04/03 04:07:49;;;;;;;9.95;4.45;;;;;;;;;;5083560;28;20151;-68
2022/04/03 04:10:16;;;;;;;;;;;;;;;;;;5106131;28;20060;-68
2022/04/03 04:12:44;;;;;;;10.38;4.30;;;;;;;;;;5089377;28;19932;-68
2022/04/03 04:15:10;;;;;;;11.60;4.65;;;;;;;;;;5085513;28;20076;-68
2022/04/03 04:17:38;;;;;;;11.65;4.55;;;;;;;;;;5087576;28;20511;-68
2022/04/03 04:20:08;;;;;;;10.73;4.35;;;;;;;;;;5089161;28;20067;-68
2022/04/03 04:22:34;;;;;;;11.55;4.50;;;;;;;;;;5087425;28;20160;-68
2022/04/03 04:25:00;;;;;;;10.25;4.60;;;;;;;;;;5088101;28;20486;-68
2022/04/03 04:27:26;;;;;;;15.95;5.15;;;;;;;;;;5071885;28;20040;-68
2022/04/03 04:29:52;;;;;;;13.13;4.80;;;;;;;;;;5073714;28;20085;-68
2022/04/03 04:32:21;;;;;;;11.00;4.47;;;;;;;;;;5069812;28;20040;-68
2022/04/03 04:34:49;;;;;;;12.07;4.05;;;;;;;;;;5087490;28;20051;-68
2022/04/03 04:37:15;;;;;;;10.52;4.20;;;;;;;;;;5087688;28;20067;-68
2022/04/03 04:39:41;;;;;;;10.88;4.57;;;;;;;;;;5087595;28;20044;-68
2022/04/03 04:42:07;;;;;;;10.57;4.10;;;;;;;;;;5087430;28;20086;-68
2022/04/03 04:44:33;;;;;;;11.68;4.63;;;;;;;;;;5087832;28;20048;-68
2022/04/03 04:47:00;;;;;;;10.95;5.05;;;;;;;;;;5085281;28;20177;-68
2022/04/03 04:49:26;;;;;;;11.55;5.43;;;;;;;;;;5088226;28;20083;-68
2022/04/03 04:51:52;;;;;;;10.30;4.90;;;;;;;;;;5099972;28;20039;-68
2022/04/03 04:54:18;;;;;;;11.48;5.47;;;;;;;;;;5081186;28;20049;-67
2022/04/03 04:56:44;;;;;;;11.40;5.25;;;;;;;;;;5067253;28;20063;-67
2022/04/03 04:59:11;;;;;;;11.55;5.32;;;;;;;;;;5065797;28;20052;-67
2022/04/03 05:01:37;;;;;;;12.85;5.35;;;;;;;;;;5089745;28;20042;-68
2022/04/03 05:04:03;;;;;;;;;;;;;;;;;;5107943;28;20055;-68
2022/04/03 05:06:30;;;;;;;13.02;5.00;;;;;;;;;;5107437;28;19924;-68
2022/04/03 05:08:56;;;;;;;;;;;;;;;;;;5097296;28;20043;-68
2022/04/03 05:11:22;;;;;;;14.77;5.60;;;;;;;;;;5107032;28;19920;-68
2022/04/03 05:13:48;;;;;;;;;;;;;;;;;;5102903;28;20080;-68
2022/04/03 05:16:14;;;;;;;11.63;5.30;;;;;;;;;;5086688;28;20444;-68
2022/04/03 05:18:41;;;;;;;13.43;5.30;;;;;;;;;;5086269;28;20492;-68
2022/04/03 05:21:10;;;;;;;13.85;5.60;;;;;;;;;;5084977;28;20163;-68
2022/04/03 05:23:38;;;;;;;13.43;6.13;;;;;;;;;;5068256;28;20140;-68
2022/04/03 05:26:05;;;;;;;15.32;5.97;;;;;;;;;;5084290;28;20444;-68
2022/04/03 05:28:31;;;;;;;11.65;5.22;;;;;;;;;;5073240;28;20087;-68
2022/04/03 05:30:58;;;;;;;12.13;5.53;;;;;;;;;;5105330;28;20075;-68
2022/04/03 05:33:24;;;;;;;11.95;5.97;;;;;;;;;;5106490;28;20048;-68
2022/04/03 05:35:50;;;;;;;11.82;5.70;;;;;;;;;;5108360;28;20043;-68
2022/04/03 05:38:17;;;;;;;16.50;6.03;;;;;;;;;;5088099;28;20154;-68
2022/04/03 05:40:43;;;;;;;17.95;6.03;;;;;;;;;;5104237;28;20156;-69
2022/04/03 05:43:10;;;;;;;14.10;6.18;;;;;;;;;;5097063;28;20067;-68
2022/04/03 05:45:38;;;;;;;17.05;6.28;;;;;;;;;;5089463;28;20132;-68
2022/04/03 05:48:05;;;;;;;14.90;6.22;;;;;;;;;;5088538;28;20133;-68
2022/04/03 05:50:31;;;;;;;13.55;5.70;;;;;;;;;;5089531;28;20476;-68
2022/04/03 05:52:57;;;;;;;14.95;6.28;;;;;;;;;;5089126;28;20139;-68
2022/04/03 05:55:23;;;;;;;13.23;5.53;;;;;;;;;;5089974;28;20051;-68
2022/04/03 05:57:51;;;;;;;14.52;5.80;;;;;;;;;;5087700;28;20048;-68
2022/04/03 06:00:18;;;;;;;15.65;5.68;;;;;;;;;;5088539;28;20559;-68
2022/04/03 06:02:50;;;;;;;11.07;5.38;;;;;;;;;;5088967;28;20074;-68
2022/04/03 06:05:20;;;;;;;11.48;5.35;;;;;;;;;;5089435;28;20052;-68
2022/04/03 06:07:46;;;;;;;14.95;6.20;;;;;;;;;;5084616;28;20453;-69
2022/04/03 06:10:13;;;;;;;14.10;5.95;;;;;;;;;;5087612;28;20475;-68
2022/04/03 06:12:50;;;;;;;13.50;5.78;;;;;;;;;;5085113;28;20293;-68
2022/04/03 06:15:16;;;;;;;12.75;6.03;;;;;;;;;;5085750;28;20080;-68
2022/04/03 06:17:44;;;;;;;19.27;5.65;;;;;;;;;;5080045;28;20425;-69
2022/04/03 06:20:11;;;;;;;12.48;5.35;;;;;;;;;;5087358;28;20060;-69
2022/04/03 06:22:37;;;;;;;16.17;5.40;;;;;;;;;;5087772;28;20048;-69
2022/04/03 06:25:04;;;;;;;12.80;6.00;;;;;;;;;;5087785;28;20485;-68
2022/04/03 06:27:34;;;;;;;13.95;5.43;;;;;;;;;;5087345;28;20484;-68
2022/04/03 06:30:00;;;;;;;18.45;6.07;;;;;;;;;;5084217;28;20752;-68
2022/04/03 06:32:26;;;;;;;13.88;5.30;;;;;;;;;;5084904;28;20036;-68
2022/04/03 06:34:52;;;;;;;11.35;4.60;;;;;;;;;;5084131;28;20471;-68
2022/04/03 06:37:18;;;;;;;12.85;5.38;;;;;;;;;;5085577;28;20081;-69
2022/04/03 06:39:44;;;;;;;14.07;4.90;;;;;;;;;;5085974;28;20351;-68
2022/04/03 06:42:10;;;;;;;12.38;4.35;;;;;;;;;;5082190;28;20028;-68
2022/04/03 06:44:38;;;;;;;10.07;4.30;;;;;;;;;;5087187;28;20052;-68
2022/04/03 06:47:04;;;;;;;12.25;4.40;;;;;;;;;;5060356;28;20126;-68
2022/04/03 06:49:31;;;;;;;11.23;4.20;;;;;;;;;;5087042;28;20036;-68
2022/04/03 06:51:58;;;;;;;11.00;3.70;;;;;;;;;;5085988;28;20086;-68
2022/04/03 06:54:24;;;;;;;13.52;3.95;;;;;;;;;;5087648;28;20127;-68
2022/04/03 06:56:52;;;;;;;12.43;4.07;;;;;;;;;;5086227;28;20072;-68
2022/04/03 06:59:18;;;;;;;11.35;3.70;;;;;;;;;;5088032;28;20051;-68
2022/04/03 07:01:44;;;;;;;15.93;4.68;;;;;;;;;;5084688;28;20097;-68
2022/04/03 07:04:10;;;;;;;10.50;3.95;;;;;;;;;;5084550;28;20040;-68
2022/04/03 07:06:36;;;;;;;12.45;3.95;;;;;;;;;;5079577;28;20067;-69
2022/04/03 07:09:03;;;;;;;9.48;4.05;;;;;;;;;;5099071;28;20402;-69
2022/04/03 07:11:33;;;;;;;10.15;3.63;;;;;;;;;;5107267;28;20046;-69
2022/04/03 07:14:00;;;;;;;11.70;4.20;;;;;;;;;;5085719;28;20059;-69
2022/04/03 07:16:26;;;;;;;11.98;3.80;;;;;;;;;;5086544;28;20445;-69
2022/04/03 07:18:55;;;;;;;10.98;3.53;;;;;;;;;;5079091;28;20079;-72
2022/04/03 07:21:22;;;;;;;11.57;3.60;;;;;;;;;;5067481;28;20054;-69
2022/04/03 07:23:49;;;;;;;8.50;3.30;;;;;;;;;;5084375;28;20131;-69
2022/04/03 07:26:15;;;;;;;10.23;3.45;;;;;;;;;;5078732;28;20036;-68
2022/04/03 07:28:41;;;;;;;9.45;3.33;;;;;;;;;;5084802;28;20047;-70
2022/04/03 07:31:08;;;;;;;10.75;3.13;;;;;;;;;;5084780;28;20109;-70
2022/04/03 07:33:35;;;;;;;8.10;2.78;;;;;;;;;;5079345;28;20048;-71
2022/04/03 07:36:01;;;;;;;4.93;2.00;;;;;;;;;;5073770;28;20737;-70
2022/04/03 07:38:27;;;;;;;;;;;;;;;;;;5088065;28;20132;-71
2022/04/03 07:40:53;;;;;;;4.20;1.90;;;;;;;;;;5084125;28;19986;-73
2022/04/03 07:43:20;;;;;;;5.47;1.92;;;;;;;;;;5084466;28;20071;-71
2022/04/03 07:45:49;;;;;;;6.10;1.67;;;;;;;;;;5080743;28;20060;-74
2022/04/03 07:48:16;;;;;;;7.90;2.10;;;;;;;;;;5082547;28;20463;-68
2022/04/03 07:50:43;;;;;;;6.32;1.98;;;;;;;;;;5076265;28;20044;-72
2022/04/03 07:53:09;;;;;;;7.72;2.20;;;;;;;;;;5089522;28;20047;-72
2022/04/03 07:55:36;;;;;;;4.50;2.00;;;;;;;;;;5087410;28;20047;-72
2022/04/03 07:58:02;;;;;;;6.60;2.30;;;;;;;;;;5082838;28;20052;-74
2022/04/03 08:00:29;;;;;;;9.38;2.70;;;;;;;;;;5068737;28;20047;-73
2022/04/03 08:02:55;;;;;;;8.85;2.47;;;;;;;;;;5079413;28;20102;-66
2022/04/03 08:05:21;;;;;;;8.75;2.55;;;;;;;;;;5081754;28;20116;-70
2022/04/03 08:07:48;;;;;;;8.43;2.50;;;;;;;;;;5085214;28;20149;-71
2022/04/03 08:10:18;;;;;;;11.45;2.78;;;;;;;;;;5081486;28;20059;-70
2022/04/03 08:12:46;;;;;;;7.75;2.75;;;;;;;;;;5084186;28;20472;-72
2022/04/03 08:15:13;;;;;;;7.88;2.85;;;;;;;;;;5082284;28;20487;-72
2022/04/03 08:17:40;;;;;;;11.95;3.03;;;;;;;;;;5085143;28;20062;-71
2022/04/03 08:20:18;;;;;;;6.53;2.60;;;;;;;;;;5084711;28;20129;-70
2022/04/03 08:22:45;;;;;;;9.35;2.83;;;;;;;;;;5086516;28;20075;-69
2022/04/03 08:25:12;;;;;;;10.07;2.72;;;;;;;;;;5086248;28;20433;-72
2022/04/03 08:27:42;;;;;;;8.70;2.72;;;;;;;;;;5087113;28;20129;-74
2022/04/03 08:30:10;;;;;;;11.23;2.88;;;;;;;;;;5081977;28;20080;-67
2022/04/03 08:32:36;;;;;;;9.50;2.70;;;;;;;;;;5084803;28;20059;-70
2022/04/03 08:35:02;;;;;;;12.90;2.80;;;;;;;;;;5083102;28;20116;-73
2022/04/03 08:37:37;;;;;;;8.70;2.67;;;;;;;;;;5083324;28;20060;-71
2022/04/03 08:40:04;;;;;;;7.53;2.85;;;;;;;;;;5085826;28;20066;-74
2022/04/03 08:42:30;;;;;;;10.70;2.80;;;;;;;;;;5084054;28;20540;-70
2022/04/03 08:44:57;;;;;;;9.35;2.60;;;;;;;;;;5084444;28;20218;-72
2022/04/03 08:47:23;;;;;;;;;;;;;;;;;;5084436;28;20046;-72
2022/04/03 08:49:49;;;;;;;13.88;2.72;;;;;;;;;;5085137;28;20011;-71
2022/04/03 08:52:15;;;;;;;10.25;2.55;;;;;;;;;;5085799;28;20483;-70
2022/04/03 08:54:42;;;;;;;11.18;2.60;;;;;;;;;;5086291;28;20063;-67
2022/04/03 08:57:08;;;;;;;8.23;1.95;;;;;;;;;;5068873;28;20052;-68
2022/04/03 08:59:37;;;;;;;2.80;1.67;;;;;;;;;;5082972;28;20467;-66
2022/04/03 09:02:03;;;;;;;7.68;2.00;;;;;;;;;;5082835;28;20123;-71
2022/04/03 09:04:31;;;;;;;8.82;2.28;;;;;;;;;;5081002;28;20424;-70
2022/04/03 09:06:59;;;;;;;7.45;2.10;;;;;;;;;;5080142;28;20048;-69
2022/04/03 09:09:26;;;;;;;6.03;1.90;;;;;;;;;;5086451;28;20099;-67
2022/04/03 09:11:52;;;;;;;;;;;;;;;;;;5090778;28;20032;-65
2022/04/03 09:14:20;;;;;;;6.35;2.03;;;;;;;;;;5090269;28;20055;-66
2022/04/03 09:16:46;;;;;;;7.75;2.10;;;;;;;;;;5110513;27;20058;-67
2022/04/03 09:19:12;;;;;;;11.93;2.60;;;;;;;;;;5109488;28;20043;-67
2022/04/03 09:21:38;;;;;;;8.13;2.60;;;;;;;;;;5102905;28;20115;-71
2022/04/03 09:24:11;;;;;;;7.15;2.00;;;;;;;;;;5096933;28;20111;-68
2022/04/03 09:26:39;;;;;;;5.15;1.90;;;;;;;;;;5108418;28;20401;-63
2022/04/03 09:29:09;;;;;;;6.47;2.00;;;;;;;;;;5110161;28;20051;-67
2022/04/03 09:31:35;;;;;;;5.05;1.80;;;;;;;;;;5111384;28;20048;-67
2022/04/03 09:34:02;;;;;;;6.93;1.90;;;;;;;;;;5111487;28;20482;-68
2022/04/03 09:36:35;;;;;;;10.65;2.17;;;;;;;;;;5095173;28;20108;-66
2022/04/03 09:39:14;;;;;;;6.85;1.90;;;;;;;;;;5089717;28;20052;-67
2022/04/03 09:41:57;;;;;;;7.75;1.95;;;;;;;;;;5089698;28;20040;-65
2022/04/03 09:44:33;;;;;;;6.22;1.85;;;;;;;;;;5090612;28;20455;-65
2022/04/03 09:47:13;;;;;;;4.88;1.80;;;;;;;;;;5107147;28;20071;-67
2022/04/03 09:49:39;;;;;;;6.63;2.45;;;;;;;;;;5099129;28;20486;-65
2022/04/03 09:52:32;;;;;;;8.63;1.92;;;;;;;;;;5069477;28;20349;-66
2022/04/03 09:54:58;;;;;;;4.93;1.90;;;;;;;;;;5083254;28;20098;-69
2022/04/03 09:57:24;;;;;;;6.22;1.90;;;;;;;;;;5085596;28;20060;-63
2022/04/03 09:59:50;;;;;;;;;;;;;;;;;;5088845;28;20063;-63
2022/04/03 10:02:17;;;;;;;10.77;2.30;;;;;;;;;;5089548;28;19976;-65
2022/04/03 10:04:44;;;;;;;6.95;1.92;;;;;;;;;;5084686;28;20052;-64
2022/04/03 10:07:13;;;;;;;10.05;2.15;;;;;;;;;;5067929;28;20063;-63
2022/04/03 10:09:45;;;;;;;5.75;2.15;;;;;;;;;;5088885;28;20044;-66
2022/04/03 10:12:21;;;;;;;10.80;2.38;;;;;;;;;;5089346;28;20056;-65
2022/04/03 10:14:51;;;;;;;8.10;2.20;;;;;;;;;;5089304;28;20150;-66
2022/04/03 10:17:18;;;;;;;7.45;2.20;;;;;;;;;;5078301;28;20085;-68
2022/04/03 10:19:44;;;;;;;9.00;2.30;;;;;;;;;;5083730;28;20119;-65
2022/04/03 10:22:13;;;;;;;6.10;2.10;;;;;;;;;;5088206;28;20048;-69
2022/04/03 10:24:44;;;;;;;8.10;2.65;;;;;;;;;;5089400;28;20487;-68
2022/04/03 10:27:14;;;;;;;7.25;2.20;;;;;;;;;;5089640;28;20375;-72
2022/04/03 10:29:40;;;;;;;8.88;2.70;;;;;;;;;;5091418;28;20093;-68
2022/04/03 10:32:07;;;;;;;5.20;2.00;;;;;;;;;;5088901;28;20189;-67
2022/04/03 10:34:54;;;;;;;9.57;1.92;;;;;;;;;;5090090;28;20506;-67
2022/04/03 10:37:23;;;;;;;4.05;1.80;;;;;;;;;;5088698;28;20055;-65
2022/04/03 10:39:52;;;;;;;6.05;2.13;;;;;;;;;;5090561;28;20048;-67
2022/04/03 10:42:25;;;;;;;7.45;2.20;;;;;;;;;;5089240;28;20067;-67
2022/04/03 10:45:10;;;;;;;10.07;2.47;;;;;;;;;;5089066;28;20104;-64
2022/04/03 10:47:40;;;;;;;10.60;2.47;;;;;;;;;;5081853;28;20076;-63
2022/04/03 10:50:09;;;;;;;10.50;2.40;;;;;;;;;;5084591;28;20120;-63
2022/04/03 10:52:38;;;;;;;13.65;3.05;;;;;;;;;;5073300;28;20040;-63
2022/04/03 10:55:20;;;;;;;8.63;2.60;;;;;;;;;;5088415;28;20062;-64
2022/04/03 10:58:06;;;;;;;8.27;2.20;;;;;;;;;;5088307;28;20040;-61
2022/04/03 11:00:36;;;;;;;6.25;2.10;;;;;;;;;;5086236;28;20047;-64
2022/04/03 11:03:14;;;;;;;9.13;2.80;;;;;;;;;;5088418;28;20044;-64
2022/04/03 11:05:46;;;;;;;7.07;2.10;;;;;;;;;;5087157;28;20056;-63
2022/04/03 11:08:12;;;;;;;7.28;2.17;;;;;;;;;;5086483;28;20142;-63
2022/04/03 11:10:56;;;;;;;6.97;2.63;;;;;;;;;;5069725;28;20079;-65
2022/04/03 11:13:32;;;;;;;9.15;2.45;;;;;;;;;;5087853;28;20464;-63
2022/04/03 11:16:05;;;;;;;5.90;2.25;;;;;;;;;;5086737;28;20421;-64
2022/04/03 11:18:34;;;;;;;7.80;2.50;;;;;;;;;;5087687;28;20064;-64
2022/04/03 11:21:04;;;;;;;6.85;2.03;;;;;;;;;;5086297;28;20121;-63
2022/04/03 11:23:30;;;;;;;6.05;2.10;;;;;;;;;;5081545;28;20060;-65
2022/04/03 11:25:57;;;;;;;9.35;2.10;;;;;;;;;;5087178;28;20078;-62
2022/04/03 11:28:25;;;;;;;4.80;1.80;;;;;;;;;;5086055;28;20143;-62
2022/04/03 11:30:52;;;;;;;6.88;2.00;;;;;;;;;;5087582;28;20092;-63
2022/04/03 11:33:18;;;;;;;11.48;2.13;;;;;;;;;;5084404;28;20043;-65
2022/04/03 11:35:46;;;;;;;;;;;;;;;;;;5086689;28;20456;-61
2022/04/03 11:38:12;;;;;;;10.13;2.40;;;;;;;;;;5088620;28;20233;-63
2022/04/03 11:40:42;;;;;;;11.93;2.70;;;;;;;;;;5087306;28;20055;-64
2022/04/03 11:43:19;;;;;;;10.02;2.70;;;;;;;;;;5082903;28;20113;-63
2022/04/03 11:45:56;;;;;;;10.13;2.47;;;;;;;;;;5087008;28;20092;-63
2022/04/03 11:48:24;;;;;;;9.32;2.28;;;;;;;;;;5075421;28;20084;-60
2022/04/03 11:51:02;;;;;;;12.05;2.83;;;;;;;;;;5081579;28;20460;-63
2022/04/03 11:53:28;;;;;;;7.05;2.30;;;;;;;;;;5083008;28;20051;-62
2022/04/03 11:55:55;;;;;;;7.50;2.35;;;;;;;;;;5073492;28;20048;-62
2022/04/03 11:58:29;;;;;;;6.38;2.00;;;;;;;;;;5069824;28;20067;-63
2022/04/03 12:00:59;;;;;;;6.47;1.70;;;;;;;;;;5070394;28;20036;-61
2022/04/03 12:03:27;;;;;;;4.32;1.70;;;;;;;;;;5086603;28;20052;-62
2022/04/03 12:06:09;;;;;;;7.70;2.28;;;;;;;;;;5084261;28;20138;-62
2022/04/03 12:08:39;;;;;;;7.50;2.00;;;;;;;;;;5086636;28;20039;-62
2022/04/03 12:11:24;;;;;;;6.78;2.25;;;;;;;;;;5087027;28;20040;-63
2022/04/03 12:13:50;;;;;;;8.10;2.10;;;;;;;;;;5079004;28;20412;-63
2022/04/03 12:16:29;;;;;;;8.00;2.03;;;;;;;;;;5067063;28;20080;-63
2022/04/03 12:19:01;;;;;;;7.72;2.05;;;;;;;;;;5065353;28;20070;-64
2022/04/03 12:21:37;;;;;;;5.57;1.70;;;;;;;;;;5066270;28;20094;-62
2022/04/03 12:24:07;;;;;;;5.93;1.90;;;;;;;;;;5065575;28;20052;-62
2022/04/03 12:26:33;;;;;;;6.45;2.10;;;;;;;;;;5081354;28;20051;-63
2022/04/03 12:29:01;;;;;;;7.95;2.10;;;;;;;;;;5085711;28;20048;-63
2022/04/03 12:31:30;;;;;;;7.85;2.40;;;;;;;;;;5086481;28;20081;-62
2022/04/03 12:34:10;;;;;;;7.53;2.10;;;;;;;;;;5086909;28;20402;-62
2022/04/03 12:36:41;;;;;;;8.45;2.30;;;;;;;;;;5084758;28;20091;-62
2022/04/03 12:39:25;;;;;;;6.57;2.10;;;;;;;;;;5084402;28;20040;-61
2022/04/03 12:41:51;;;;;;;8.60;2.50;;;;;;;;;;5068098;28;20113;-62
2022/04/03 12:44:18;;;;;;;7.20;2.38;;;;;;;;;;5091742;28;20091;-63
2022/04/03 12:46:44;;;;;;;;;;;;;;;;;;5079165;28;20480;-62
2022/04/03 12:49:15;;;;;;;6.75;2.50;;;;;;;;;;5073411;28;19935;-62
2022/04/03 12:51:47;;;;;;;9.10;2.85;;;;;;;;;;5087915;28;20441;-62
2022/04/03 12:54:14;;;;;;;8.45;2.50;;;;;;;;;;5073615;28;20044;-62
2022/04/03 12:59:37;;;;;;;7.90;2.42;;;;;;;;;;5093046;28;20460;-62
2022/04/03 13:02:05;;;;;;;8.18;2.30;;;;;;;;;;5072136;28;20452;-62
2022/04/03 13:04:32;;;;;;;8.57;2.00;;;;;;;;;;5071177;28;20044;-62
2022/04/03 13:06:59;;;;;;;7.53;2.10;;;;;;;;;;5073317;28;20051;-61
2022/04/03 13:09:25;;;;;;;7.68;2.30;;;;;;;;;;5072966;28;20049;-62
2022/04/03 13:11:51;;;;;;;;;;;;;;;;;;5091900;28;20440;-61
2022/04/03 13:14:26;;;;;;;5.25;2.03;;;;;;;;;;5090937;28;19920;-61
2022/04/03 13:16:57;;;;;;;5.45;2.10;;;;;;;;;;5093379;28;20052;-61
2022/04/03 13:19:24;;;;;;;8.52;2.38;;;;;;;;;;5092217;28;20059;-61
2022/04/03 13:21:51;;;;;;;7.65;2.00;;;;;;;;;;5082798;28;20296;-61
2022/04/03 13:24:17;;;;;;;6.22;2.05;;;;;;;;;;5073277;28;20048;-62
2022/04/03 13:26:44;;;;;;;7.68;2.17;;;;;;;;;;5072638;28;20060;-61
2022/04/03 13:29:12;;;;;;;5.63;1.95;;;;;;;;;;5091034;28;20139;-63
2022/04/03 13:31:38;;;;;;;7.60;2.08;;;;;;;;;;5091872;28;20135;-64
2022/04/03 13:34:05;;;;;;;5.82;2.05;;;;;;;;;;5072489;28;20040;-62
2022/04/03 13:36:31;;;;;;;;;;;;;;;;;;5073096;28;20552;-61
2022/04/03 13:39:01;;;;;;;6.65;1.88;;;;;;;;;;5073191;28;19974;-62
2022/04/03 13:41:30;;;;;;;6.60;2.20;;;;;;;;;;5075187;28;20345;-61
2022/04/03 13:43:56;;;;;;;5.88;2.10;;;;;;;;;;5086465;28;20044;-61
2022/04/03 13:46:25;;;;;;;6.07;2.15;;;;;;;;;;5091149;28;20206;-67
2022/04/03 13:48:51;;;;;;;5.90;2.10;;;;;;;;;;5092772;28;20074;-65
2022/04/03 13:51:20;;;;;;;7.38;2.30;;;;;;;;;;5093135;28;20088;-64
2022/04/03 13:53:46;;;;;;;8.15;2.20;;;;;;;;;;5090720;28;20047;-65
2022/04/03 13:56:13;;;;;;;;;;;;;;;;;;5089393;28;20491;-64
2022/04/03 13:58:39;;;;;;;7.30;2.30;;;;;;;;;;5087817;28;19971;-65
2022/04/03 14:01:09;;;;;;;7.65;2.00;;;;;;;;;;5090162;28;20036;-64
2022/04/03 14:03:36;;;;;;;5.45;1.70;;;;;;;;;;5088587;28;20040;-65
2022/04/03 14:06:02;;;;;;;7.65;1.90;;;;;;;;;;5089399;28;20139;-64
2022/04/03 14:08:31;;;;;;;7.95;2.22;;;;;;;;;;5089154;28;20441;-64
2022/04/03 14:11:01;;;;;;;9.25;2.25;;;;;;;;;;5089330;28;20177;-64
2022/04/03 14:13:29;;;;;;;8.82;2.70;;;;;;;;;;5089315;28;20047;-65
2022/04/03 14:15:59;;;;;;;6.65;2.30;;;;;;;;;;5071344;28;20117;-63
2022/04/03 14:18:25;;;;;;;5.95;2.20;;;;;;;;;;5067453;28;20097;-62
2022/04/03 14:20:53;;;;;;;11.00;2.60;;;;;;;;;;5068251;28;20150;-64
2022/04/03 14:23:21;;;;;;;7.30;2.47;;;;;;;;;;5067714;28;20052;-63
2022/04/03 14:25:48;;;;;;;8.77;2.50;;;;;;;;;;5078295;28;20081;-63
2022/04/03 14:28:14;;;;;;;6.93;2.40;;;;;;;;;;5088172;28;20139;-63
2022/04/03 14:30:40;;;;;;;7.65;2.60;;;;;;;;;;5088519;28;20147;-64
2022/04/03 14:33:06;;;;;;;9.00;2.90;;;;;;;;;;5070835;28;20128;-63
2022/04/03 14:35:34;;;;;;;8.45;2.72;;;;;;;;;;5087079;28;20066;-63
2022/04/03 14:38:01;;;;;;;9.27;2.45;;;;;;;;;;5086673;28;20086;-63
2022/04/03 14:40:28;;;;;;;11.57;2.80;;;;;;;;;;5086900;28;20092;-62
2022/04/03 14:42:54;;;;;;;7.45;2.45;;;;;;;;;;5074362;28;20116;-64
2022/04/03 14:45:21;;;;;;;9.32;2.70;;;;;;;;;;5067824;28;20087;-62
2022/04/03 14:47:51;;;;;;;9.77;2.53;;;;;;;;;;5067588;28;20063;-64
2022/04/03 14:50:20;;;;;;;8.63;2.65;;;;;;;;;;5068220;28;20419;-65